sensor_id;sensor_type;location;lat;lon;timestamp;temperature;humidity
21778;DHT22;11050;52.222;20.916;2023-04-25T00:01:32;11.90;99.90
21778;DHT22;11050;52.222;20.916;2023-04-25T00:04:02;11.90;99.90
21778;DHT22;11050;52.222;20.916;2023-04-25T00:06:28;11.90;99.90
21778;DHT22;11050;52.222;20.916;2023-04-25T00:08:55;11.90;99.90
21778;DHT22;11050;52.222;20.916;2023-04-25T00:11:22;11.80;99.90
21778;DHT22;11050;52.222;20.916;2023-04-25T00:13:48;11.80;99.90
21778;DHT22;11050;52.222;20.916;2023-04-25T00:16:16;11.80;99.90
21778;DHT22;11050;52.222;20.916;2023-04-25T00:18:42;11.80;99.90
21778;DHT22;11050;52.222;20.916;2023-04-25T00:21:08;11.70;99.90
21778;DHT22;11050;52.222;20.916;2023-04-25T00:23:34;11.70;99.90
21778;DHT22;11050;52.222;20.916;2023-04-25T00:26:02;11.70;99.90
21778;DHT22;11050;52.222;20.916;2023-04-25T00:28:28;11.70;99.90
21778;DHT22;11050;52.222;20.916;2023-04-25T00:30:53;11.80;99.90
21778;DHT22;11050;52.222;20.916;2023-04-25T00:33:19;11.70;99.90
21778;DHT22;11050;52.222;20.916;2023-04-25T00:35:45;11.80;99.90
21778;DHT22;11050;52.222;20.916;2023-04-25T00:38:11;11.70;99.90
21778;DHT22;11050;52.222;20.916;2023-04-25T00:40:37;11.80;99.90
21778;DHT22;11050;52.222;20.916;2023-04-25T00:43:03;11.80;99.90
21778;DHT22;11050;52.222;20.916;2023-04-25T00:45:29;11.80;99.90
21778;DHT22;11050;52.222;20.916;2023-04-25T00:47:56;11.70;99.90
21778;DHT22;11050;52.222;20.916;2023-04-25T00:50:23;11.70;99.90
21778;DHT22;11050;52.222;20.916;2023-04-25T00:52:49;11.70;99.90
21778;DHT22;11050;52.222;20.916;2023-04-25T00:55:15;11.70;99.90
21778;DHT22;11050;52.222;20.916;2023-04-25T00:57:42;11.70;99.90
21778;DHT22;11050;52.222;20.916;2023-04-25T01:00:09;11.70;99.90
21778;DHT22;11050;52.222;20.916;2023-04-25T01:02:37;11.70;99.90
21778;DHT22;11050;52.222;20.916;2023-04-25T01:05:03;11.60;99.90
21778;DHT22;11050;52.222;20.916;2023-04-25T01:07:30;11.60;99.90
21778;DHT22;11050;52.222;20.916;2023-04-25T01:09:55;11.60;99.90
21778;DHT22;11050;52.222;20.916;2023-04-25T01:12:22;11.60;99.90
21778;DHT22;11050;52.222;20.916;2023-04-25T01:14:49;11.60;99.90
21778;DHT22;11050;52.222;20.916;2023-04-25T01:17:15;11.50;99.90
21778;DHT22;11050;52.222;20.916;2023-04-25T01:19:41;11.50;99.90
21778;DHT22;11050;52.222;20.916;2023-04-25T01:22:07;11.50;99.90
21778;DHT22;11050;52.222;20.916;2023-04-25T01:24:36;11.50;99.90
21778;DHT22;11050;52.222;20.916;2023-04-25T01:27:03;11.40;99.90
21778;DHT22;11050;52.222;20.916;2023-04-25T01:29:29;11.40;99.90
21778;DHT22;11050;52.222;20.916;2023-04-25T01:31:56;11.30;99.90
21778;DHT22;11050;52.222;20.916;2023-04-25T01:34:24;11.30;99.90
21778;DHT22;11050;52.222;20.916;2023-04-25T01:36:50;11.20;99.90
21778;DHT22;11050;52.222;20.916;2023-04-25T01:39:17;11.20;99.90
21778;DHT22;11050;52.222;20.916;2023-04-25T01:41:44;11.20;99.90
21778;DHT22;11050;52.222;20.916;2023-04-25T01:44:11;11.20;99.90
21778;DHT22;11050;52.222;20.916;2023-04-25T01:46:37;11.20;99.90
21778;DHT22;11050;52.222;20.916;2023-04-25T01:49:03;11.20;99.90
21778;DHT22;11050;52.222;20.916;2023-04-25T01:51:29;11.20;99.90
21778;DHT22;11050;52.222;20.916;2023-04-25T01:53:57;11.20;99.90
21778;DHT22;11050;52.222;20.916;2023-04-25T01:56:23;11.20;99.90
21778;DHT22;11050;52.222;20.916;2023-04-25T01:58:49;11.20;99.90
21778;DHT22;11050;52.222;20.916;2023-04-25T02:01:14;11.20;99.90
21778;DHT22;11050;52.222;20.916;2023-04-25T02:03:40;11.10;99.90
21778;DHT22;11050;52.222;20.916;2023-04-25T02:06:06;11.10;99.90
21778;DHT22;11050;52.222;20.916;2023-04-25T02:08:32;11.10;99.90
21778;DHT22;11050;52.222;20.916;2023-04-25T02:10:58;11.00;99.90
21778;DHT22;11050;52.222;20.916;2023-04-25T02:13:24;11.00;99.90
21778;DHT22;11050;52.222;20.916;2023-04-25T02:15:50;11.00;99.90
21778;DHT22;11050;52.222;20.916;2023-04-25T02:18:16;11.00;99.90
21778;DHT22;11050;52.222;20.916;2023-04-25T02:20:42;11.00;99.90
21778;DHT22;11050;52.222;20.916;2023-04-25T02:23:08;11.00;99.90
21778;DHT22;11050;52.222;20.916;2023-04-25T02:25:34;11.00;99.90
21778;DHT22;11050;52.222;20.916;2023-04-25T02:28:00;11.00;99.90
21778;DHT22;11050;52.222;20.916;2023-04-25T02:30:26;11.00;99.90
21778;DHT22;11050;52.222;20.916;2023-04-25T02:32:51;10.90;99.90
21778;DHT22;11050;52.222;20.916;2023-04-25T02:35:17;10.90;99.90
21778;DHT22;11050;52.222;20.916;2023-04-25T02:37:43;10.90;99.90
21778;DHT22;11050;52.222;20.916;2023-04-25T02:40:09;10.90;99.90
21778;DHT22;11050;52.222;20.916;2023-04-25T02:42:35;10.80;99.90
21778;DHT22;11050;52.222;20.916;2023-04-25T02:45:02;10.80;99.90
21778;DHT22;11050;52.222;20.916;2023-04-25T02:47:29;10.80;99.90
21778;DHT22;11050;52.222;20.916;2023-04-25T02:49:54;10.80;99.90
21778;DHT22;11050;52.222;20.916;2023-04-25T02:52:20;10.70;99.90
21778;DHT22;11050;52.222;20.916;2023-04-25T02:54:46;10.70;99.90
21778;DHT22;11050;52.222;20.916;2023-04-25T02:57:12;10.70;99.90
21778;DHT22;11050;52.222;20.916;2023-04-25T02:59:38;10.70;99.90
21778;DHT22;11050;52.222;20.916;2023-04-25T03:02:04;10.60;99.90
21778;DHT22;11050;52.222;20.916;2023-04-25T03:04:29;10.60;99.90
21778;DHT22;11050;52.222;20.916;2023-04-25T03:06:55;10.60;99.90
21778;DHT22;11050;52.222;20.916;2023-04-25T03:09:21;10.60;99.90
21778;DHT22;11050;52.222;20.916;2023-04-25T03:11:47;10.60;99.90
21778;DHT22;11050;52.222;20.916;2023-04-25T03:14:13;10.60;99.90
21778;DHT22;11050;52.222;20.916;2023-04-25T03:16:39;10.60;99.90
21778;DHT22;11050;52.222;20.916;2023-04-25T03:19:05;10.60;99.90
21778;DHT22;11050;52.222;20.916;2023-04-25T03:21:33;10.70;99.90
21778;DHT22;11050;52.222;20.916;2023-04-25T03:24:02;10.60;99.90
21778;DHT22;11050;52.222;20.916;2023-04-25T03:26:29;10.60;99.90
21778;DHT22;11050;52.222;20.916;2023-04-25T03:28:55;10.70;99.90
21778;DHT22;11050;52.222;20.916;2023-04-25T03:31:20;10.70;99.90
21778;DHT22;11050;52.222;20.916;2023-04-25T03:33:47;10.70;99.90
21778;DHT22;11050;52.222;20.916;2023-04-25T03:36:13;10.70;99.90
21778;DHT22;11050;52.222;20.916;2023-04-25T03:38:39;10.80;99.90
21778;DHT22;11050;52.222;20.916;2023-04-25T03:41:06;10.80;99.90
21778;DHT22;11050;52.222;20.916;2023-04-25T03:43:33;10.80;99.90
21778;DHT22;11050;52.222;20.916;2023-04-25T03:45:58;10.90;99.90
21778;DHT22;11050;52.222;20.916;2023-04-25T03:48:25;10.90;99.90
21778;DHT22;11050;52.222;20.916;2023-04-25T03:50:52;11.00;99.90
21778;DHT22;11050;52.222;20.916;2023-04-25T03:53:18;11.00;99.90
21778;DHT22;11050;52.222;20.916;2023-04-25T03:55:44;11.00;99.90
21778;DHT22;11050;52.222;20.916;2023-04-25T03:58:10;11.00;99.90
21778;DHT22;11050;52.222;20.916;2023-04-25T04:00:36;11.00;99.90
21778;DHT22;11050;52.222;20.916;2023-04-25T04:03:02;11.10;99.90
21778;DHT22;11050;52.222;20.916;2023-04-25T04:05:28;11.10;99.90
21778;DHT22;11050;52.222;20.916;2023-04-25T04:07:55;11.10;99.90
21778;DHT22;11050;52.222;20.916;2023-04-25T04:10:21;11.10;99.90
21778;DHT22;11050;52.222;20.916;2023-04-25T04:12:47;11.10;99.90
21778;DHT22;11050;52.222;20.916;2023-04-25T04:15:12;11.10;99.90
21778;DHT22;11050;52.222;20.916;2023-04-25T04:17:38;11.20;99.90
21778;DHT22;11050;52.222;20.916;2023-04-25T04:20:05;11.20;99.90
21778;DHT22;11050;52.222;20.916;2023-04-25T04:22:32;11.10;99.90
21778;DHT22;11050;52.222;20.916;2023-04-25T04:24:58;11.10;99.90
21778;DHT22;11050;52.222;20.916;2023-04-25T04:27:23;11.10;99.90
21778;DHT22;11050;52.222;20.916;2023-04-25T04:29:49;11.10;99.90
21778;DHT22;11050;52.222;20.916;2023-04-25T04:32:17;11.10;99.90
21778;DHT22;11050;52.222;20.916;2023-04-25T04:34:43;11.10;99.90
21778;DHT22;11050;52.222;20.916;2023-04-25T04:37:09;11.10;99.90
21778;DHT22;11050;52.222;20.916;2023-04-25T04:39:36;11.10;99.90
21778;DHT22;11050;52.222;20.916;2023-04-25T04:42:02;11.00;99.90
21778;DHT22;11050;52.222;20.916;2023-04-25T04:44:29;11.00;99.90
21778;DHT22;11050;52.222;20.916;2023-04-25T04:46:58;11.00;99.90
21778;DHT22;11050;52.222;20.916;2023-04-25T04:49:24;10.90;99.90
21778;DHT22;11050;52.222;20.916;2023-04-25T04:51:50;10.90;99.90
21778;DHT22;11050;52.222;20.916;2023-04-25T04:54:16;10.90;99.90
21778;DHT22;11050;52.222;20.916;2023-04-25T04:56:42;10.80;99.90
21778;DHT22;11050;52.222;20.916;2023-04-25T04:59:08;10.80;99.90
21778;DHT22;11050;52.222;20.916;2023-04-25T05:01:35;10.80;99.90
21778;DHT22;11050;52.222;20.916;2023-04-25T05:04:01;10.80;99.90
21778;DHT22;11050;52.222;20.916;2023-04-25T05:06:28;10.70;99.90
21778;DHT22;11050;52.222;20.916;2023-04-25T05:08:55;10.70;99.90
21778;DHT22;11050;52.222;20.916;2023-04-25T05:11:22;10.70;99.90
21778;DHT22;11050;52.222;20.916;2023-04-25T05:13:52;10.70;99.90
21778;DHT22;11050;52.222;20.916;2023-04-25T05:16:19;10.70;99.90
21778;DHT22;11050;52.222;20.916;2023-04-25T05:18:46;10.70;99.90
21778;DHT22;11050;52.222;20.916;2023-04-25T05:21:12;10.70;99.90
21778;DHT22;11050;52.222;20.916;2023-04-25T05:23:38;10.60;99.90
21778;DHT22;11050;52.222;20.916;2023-04-25T05:26:04;10.60;99.90
21778;DHT22;11050;52.222;20.916;2023-04-25T05:28:30;10.60;99.90
21778;DHT22;11050;52.222;20.916;2023-04-25T05:30:56;10.60;99.90
21778;DHT22;11050;52.222;20.916;2023-04-25T05:33:22;10.50;99.90
21778;DHT22;11050;52.222;20.916;2023-04-25T05:35:50;10.60;99.90
21778;DHT22;11050;52.222;20.916;2023-04-25T05:38:15;10.50;99.90
21778;DHT22;11050;52.222;20.916;2023-04-25T05:40:41;10.50;99.90
21778;DHT22;11050;52.222;20.916;2023-04-25T05:43:07;10.50;99.90
21778;DHT22;11050;52.222;20.916;2023-04-25T05:45:33;10.50;99.90
21778;DHT22;11050;52.222;20.916;2023-04-25T05:47:59;10.40;99.90
21778;DHT22;11050;52.222;20.916;2023-04-25T05:50:25;10.40;99.90
21778;DHT22;11050;52.222;20.916;2023-04-25T05:52:51;10.50;99.90
21778;DHT22;11050;52.222;20.916;2023-04-25T05:55:16;10.60;99.90
21778;DHT22;11050;52.222;20.916;2023-04-25T05:57:42;10.50;99.90
21778;DHT22;11050;52.222;20.916;2023-04-25T06:00:11;10.60;99.90
21778;DHT22;11050;52.222;20.916;2023-04-25T06:02:38;10.60;99.90
21778;DHT22;11050;52.222;20.916;2023-04-25T06:05:04;10.60;99.90
21778;DHT22;11050;52.222;20.916;2023-04-25T06:07:30;10.60;99.90
21778;DHT22;11050;52.222;20.916;2023-04-25T06:09:56;10.60;99.90
21778;DHT22;11050;52.222;20.916;2023-04-25T06:12:22;10.60;99.90
21778;DHT22;11050;52.222;20.916;2023-04-25T06:14:48;10.60;99.90
21778;DHT22;11050;52.222;20.916;2023-04-25T06:17:14;10.60;99.90
21778;DHT22;11050;52.222;20.916;2023-04-25T06:19:39;10.60;99.90
21778;DHT22;11050;52.222;20.916;2023-04-25T06:22:06;10.60;99.90
21778;DHT22;11050;52.222;20.916;2023-04-25T06:24:32;10.60;99.90
21778;DHT22;11050;52.222;20.916;2023-04-25T06:26:59;10.50;99.90
21778;DHT22;11050;52.222;20.916;2023-04-25T06:29:25;10.50;99.90
21778;DHT22;11050;52.222;20.916;2023-04-25T06:31:51;10.50;99.90
21778;DHT22;11050;52.222;20.916;2023-04-25T06:34:17;10.40;99.90
21778;DHT22;11050;52.222;20.916;2023-04-25T06:36:42;10.30;99.90
21778;DHT22;11050;52.222;20.916;2023-04-25T06:39:09;10.30;99.90
21778;DHT22;11050;52.222;20.916;2023-04-25T06:41:35;10.20;99.90
21778;DHT22;11050;52.222;20.916;2023-04-25T06:44:01;10.10;99.90
21778;DHT22;11050;52.222;20.916;2023-04-25T06:46:27;10.00;99.90
21778;DHT22;11050;52.222;20.916;2023-04-25T06:48:53;10.00;99.90
21778;DHT22;11050;52.222;20.916;2023-04-25T06:51:19;10.00;99.90
21778;DHT22;11050;52.222;20.916;2023-04-25T06:53:44;10.00;99.90
21778;DHT22;11050;52.222;20.916;2023-04-25T06:56:10;10.00;99.90
21778;DHT22;11050;52.222;20.916;2023-04-25T06:58:36;10.00;99.90
21778;DHT22;11050;52.222;20.916;2023-04-25T07:01:02;10.10;99.90
21778;DHT22;11050;52.222;20.916;2023-04-25T07:03:28;10.20;99.90
21778;DHT22;11050;52.222;20.916;2023-04-25T07:05:53;10.20;99.90
21778;DHT22;11050;52.222;20.916;2023-04-25T07:08:21;10.30;99.90
21778;DHT22;11050;52.222;20.916;2023-04-25T07:10:46;10.40;99.90
21778;DHT22;11050;52.222;20.916;2023-04-25T07:13:12;10.50;99.90
21778;DHT22;11050;52.222;20.916;2023-04-25T07:15:38;10.50;99.90
21778;DHT22;11050;52.222;20.916;2023-04-25T07:18:04;10.50;99.90
21778;DHT22;11050;52.222;20.916;2023-04-25T07:20:30;10.60;99.90
21778;DHT22;11050;52.222;20.916;2023-04-25T07:22:56;10.60;99.90
21778;DHT22;11050;52.222;20.916;2023-04-25T07:25:22;10.60;99.90
21778;DHT22;11050;52.222;20.916;2023-04-25T07:27:48;10.60;99.90
21778;DHT22;11050;52.222;20.916;2023-04-25T07:30:14;10.50;99.90
21778;DHT22;11050;52.222;20.916;2023-04-25T07:32:40;10.50;99.90
21778;DHT22;11050;52.222;20.916;2023-04-25T07:35:06;10.50;99.90
21778;DHT22;11050;52.222;20.916;2023-04-25T07:37:34;10.40;99.90
21778;DHT22;11050;52.222;20.916;2023-04-25T07:40:01;10.40;99.90
21778;DHT22;11050;52.222;20.916;2023-04-25T07:42:30;10.40;99.90
21778;DHT22;11050;52.222;20.916;2023-04-25T07:44:57;10.40;99.90
21778;DHT22;11050;52.222;20.916;2023-04-25T07:47:22;10.50;99.90
21778;DHT22;11050;52.222;20.916;2023-04-25T07:49:48;10.40;99.90
21778;DHT22;11050;52.222;20.916;2023-04-25T07:52:14;10.40;99.90
21778;DHT22;11050;52.222;20.916;2023-04-25T07:54:40;10.30;99.90
21778;DHT22;11050;52.222;20.916;2023-04-25T07:57:05;10.30;99.90
21778;DHT22;11050;52.222;20.916;2023-04-25T07:59:39;10.20;99.90
21778;DHT22;11050;52.222;20.916;2023-04-25T08:02:05;10.20;99.90
21778;DHT22;11050;52.222;20.916;2023-04-25T08:04:31;10.10;99.90
21778;DHT22;11050;52.222;20.916;2023-04-25T08:06:56;10.00;99.90
21778;DHT22;11050;52.222;20.916;2023-04-25T08:09:22;10.00;99.90
21778;DHT22;11050;52.222;20.916;2023-04-25T08:11:48;9.90;99.90
21778;DHT22;11050;52.222;20.916;2023-04-25T08:14:14;9.90;99.90
21778;DHT22;11050;52.222;20.916;2023-04-25T08:16:40;9.80;99.90
21778;DHT22;11050;52.222;20.916;2023-04-25T08:19:06;9.80;99.90
21778;DHT22;11050;52.222;20.916;2023-04-25T08:21:32;9.90;99.90
21778;DHT22;11050;52.222;20.916;2023-04-25T08:23:58;9.90;99.90
21778;DHT22;11050;52.222;20.916;2023-04-25T08:26:24;10.00;99.90
21778;DHT22;11050;52.222;20.916;2023-04-25T08:28:50;10.00;99.90
21778;DHT22;11050;52.222;20.916;2023-04-25T08:31:16;10.10;99.90
21778;DHT22;11050;52.222;20.916;2023-04-25T08:33:42;10.00;99.90
21778;DHT22;11050;52.222;20.916;2023-04-25T08:36:10;10.00;99.90
21778;DHT22;11050;52.222;20.916;2023-04-25T08:38:35;10.10;99.90
21778;DHT22;11050;52.222;20.916;2023-04-25T08:41:02;10.10;99.90
21778;DHT22;11050;52.222;20.916;2023-04-25T08:43:29;10.10;99.90
21778;DHT22;11050;52.222;20.916;2023-04-25T08:45:59;10.10;99.90
21778;DHT22;11050;52.222;20.916;2023-04-25T08:48:27;10.10;99.90
21778;DHT22;11050;52.222;20.916;2023-04-25T08:50:55;10.10;99.90
21778;DHT22;11050;52.222;20.916;2023-04-25T08:53:32;10.10;99.90
21778;DHT22;11050;52.222;20.916;2023-04-25T08:56:00;10.10;99.90
21778;DHT22;11050;52.222;20.916;2023-04-25T08:58:27;10.00;99.90
21778;DHT22;11050;52.222;20.916;2023-04-25T09:00:54;10.00;99.90
21778;DHT22;11050;52.222;20.916;2023-04-25T09:03:20;10.00;99.90
21778;DHT22;11050;52.222;20.916;2023-04-25T09:05:46;10.00;99.90
21778;DHT22;11050;52.222;20.916;2023-04-25T09:08:12;9.90;99.90
21778;DHT22;11050;52.222;20.916;2023-04-25T09:10:38;10.00;99.90
21778;DHT22;11050;52.222;20.916;2023-04-25T09:18:31;10.00;99.90
21778;DHT22;11050;52.222;20.916;2023-04-25T09:23:43;10.00;99.90
21778;DHT22;11050;52.222;20.916;2023-04-25T09:26:10;10.10;99.90
21778;DHT22;11050;52.222;20.916;2023-04-25T09:28:40;10.10;99.90
21778;DHT22;11050;52.222;20.916;2023-04-25T09:31:10;10.20;99.90
21778;DHT22;11050;52.222;20.916;2023-04-25T09:33:37;10.20;99.90
21778;DHT22;11050;52.222;20.916;2023-04-25T09:36:08;10.20;99.90
21778;DHT22;11050;52.222;20.916;2023-04-25T09:38:41;10.30;99.90
21778;DHT22;11050;52.222;20.916;2023-04-25T09:41:10;10.30;99.90
21778;DHT22;11050;52.222;20.916;2023-04-25T09:43:37;10.30;99.90
21778;DHT22;11050;52.222;20.916;2023-04-25T09:46:10;10.20;99.90
21778;DHT22;11050;52.222;20.916;2023-04-25T09:48:37;10.20;99.90
21778;DHT22;11050;52.222;20.916;2023-04-25T09:51:03;10.20;99.90
21778;DHT22;11050;52.222;20.916;2023-04-25T09:53:29;10.20;99.90
21778;DHT22;11050;52.222;20.916;2023-04-25T09:55:59;10.20;99.90
21778;DHT22;11050;52.222;20.916;2023-04-25T09:58:28;10.20;99.90
21778;DHT22;11050;52.222;20.916;2023-04-25T10:01:00;10.20;99.90
21778;DHT22;11050;52.222;20.916;2023-04-25T10:03:34;10.20;99.90
21778;DHT22;11050;52.222;20.916;2023-04-25T10:06:03;10.10;99.90
21778;DHT22;11050;52.222;20.916;2023-04-25T10:08:34;10.10;99.90
21778;DHT22;11050;52.222;20.916;2023-04-25T10:11:06;10.20;99.90
21778;DHT22;11050;52.222;20.916;2023-04-25T10:13:35;10.20;99.90
21778;DHT22;11050;52.222;20.916;2023-04-25T10:16:03;10.20;99.90
21778;DHT22;11050;52.222;20.916;2023-04-25T10:18:31;10.20;99.90
21778;DHT22;11050;52.222;20.916;2023-04-25T10:21:00;10.20;99.90
21778;DHT22;11050;52.222;20.916;2023-04-25T10:23:31;10.20;99.90
21778;DHT22;11050;52.222;20.916;2023-04-25T10:25:59;10.20;99.90
21778;DHT22;11050;52.222;20.916;2023-04-25T10:28:26;10.20;99.90
21778;DHT22;11050;52.222;20.916;2023-04-25T10:31:07;10.20;99.90
21778;DHT22;11050;52.222;20.916;2023-04-25T10:33:34;10.20;99.90
21778;DHT22;11050;52.222;20.916;2023-04-25T10:36:22;10.20;99.90
21778;DHT22;11050;52.222;20.916;2023-04-25T10:38:49;10.20;99.90
21778;DHT22;11050;52.222;20.916;2023-04-25T10:41:19;10.20;99.90
21778;DHT22;11050;52.222;20.916;2023-04-25T10:43:49;10.20;99.90
21778;DHT22;11050;52.222;20.916;2023-04-25T10:46:28;10.20;99.90
21778;DHT22;11050;52.222;20.916;2023-04-25T10:48:59;10.10;99.90
21778;DHT22;11050;52.222;20.916;2023-04-25T10:51:31;10.10;99.90
21778;DHT22;11050;52.222;20.916;2023-04-25T10:54:03;10.00;99.90
21778;DHT22;11050;52.222;20.916;2023-04-25T10:59:16;10.00;99.90
21778;DHT22;11050;52.222;20.916;2023-04-25T11:01:46;10.00;99.90
21778;DHT22;11050;52.222;20.916;2023-04-25T11:10:06;10.10;99.90
21778;DHT22;11050;52.222;20.916;2023-04-25T11:12:32;10.20;99.90
21778;DHT22;11050;52.222;20.916;2023-04-25T11:15:05;10.20;99.90
21778;DHT22;11050;52.222;20.916;2023-04-25T11:17:33;10.30;99.90
21778;DHT22;11050;52.222;20.916;2023-04-25T11:20:00;10.40;99.90
21778;DHT22;11050;52.222;20.916;2023-04-25T11:22:27;10.50;99.90
21778;DHT22;11050;52.222;20.916;2023-04-25T11:24:53;10.60;99.90
21778;DHT22;11050;52.222;20.916;2023-04-25T11:27:20;10.60;99.90
21778;DHT22;11050;52.222;20.916;2023-04-25T11:29:46;10.70;99.90
21778;DHT22;11050;52.222;20.916;2023-04-25T11:32:15;10.70;99.90
21778;DHT22;11050;52.222;20.916;2023-04-25T11:34:43;10.80;99.90
21778;DHT22;11050;52.222;20.916;2023-04-25T11:37:11;10.90;99.90
21778;DHT22;11050;52.222;20.916;2023-04-25T11:39:43;11.00;99.90
21778;DHT22;11050;52.222;20.916;2023-04-25T11:42:11;11.00;99.90
21778;DHT22;11050;52.222;20.916;2023-04-25T11:44:38;11.10;99.90
21778;DHT22;11050;52.222;20.916;2023-04-25T11:47:05;11.20;99.90
21778;DHT22;11050;52.222;20.916;2023-04-25T11:49:31;11.20;99.90
21778;DHT22;11050;52.222;20.916;2023-04-25T11:51:58;11.10;99.90
21778;DHT22;11050;52.222;20.916;2023-04-25T11:54:23;11.10;99.90
21778;DHT22;11050;52.222;20.916;2023-04-25T11:56:49;11.10;99.90
21778;DHT22;11050;52.222;20.916;2023-04-25T11:59:15;11.10;99.90
21778;DHT22;11050;52.222;20.916;2023-04-25T12:01:48;11.10;99.90
21778;DHT22;11050;52.222;20.916;2023-04-25T12:04:17;11.10;99.90
21778;DHT22;11050;52.222;20.916;2023-04-25T12:06:44;11.00;99.90
21778;DHT22;11050;52.222;20.916;2023-04-25T12:09:17;11.00;99.90
21778;DHT22;11050;52.222;20.916;2023-04-25T12:11:54;11.00;99.90
21778;DHT22;11050;52.222;20.916;2023-04-25T12:14:26;11.00;99.90
21778;DHT22;11050;52.222;20.916;2023-04-25T12:16:56;11.00;99.90
21778;DHT22;11050;52.222;20.916;2023-04-25T12:19:23;11.00;99.90
21778;DHT22;11050;52.222;20.916;2023-04-25T12:21:50;11.00;99.90
21778;DHT22;11050;52.222;20.916;2023-04-25T12:24:18;11.10;99.90
21778;DHT22;11050;52.222;20.916;2023-04-25T12:26:58;11.10;99.90
21778;DHT22;11050;52.222;20.916;2023-04-25T12:29:26;11.10;99.90
21778;DHT22;11050;52.222;20.916;2023-04-25T12:31:55;11.10;99.90
21778;DHT22;11050;52.222;20.916;2023-04-25T12:34:22;11.20;99.90
21778;DHT22;11050;52.222;20.916;2023-04-25T12:36:49;11.10;99.90
21778;DHT22;11050;52.222;20.916;2023-04-25T12:39:16;11.10;99.90
21778;DHT22;11050;52.222;20.916;2023-04-25T12:41:45;11.10;99.90
21778;DHT22;11050;52.222;20.916;2023-04-25T12:44:12;11.00;99.90
21778;DHT22;11050;52.222;20.916;2023-04-25T12:46:38;11.00;99.90
21778;DHT22;11050;52.222;20.916;2023-04-25T12:49:06;11.00;99.90
21778;DHT22;11050;52.222;20.916;2023-04-25T12:51:34;11.00;99.90
21778;DHT22;11050;52.222;20.916;2023-04-25T12:54:04;11.00;99.90
21778;DHT22;11050;52.222;20.916;2023-04-25T12:56:32;11.00;99.90
21778;DHT22;11050;52.222;20.916;2023-04-25T12:58:58;10.90;99.90
21778;DHT22;11050;52.222;20.916;2023-04-25T13:01:25;11.00;99.90
21778;DHT22;11050;52.222;20.916;2023-04-25T13:03:52;11.00;99.90
21778;DHT22;11050;52.222;20.916;2023-04-25T13:06:19;10.90;99.90
21778;DHT22;11050;52.222;20.916;2023-04-25T13:08:45;11.00;99.90
21778;DHT22;11050;52.222;20.916;2023-04-25T13:11:12;11.00;99.90
21778;DHT22;11050;52.222;20.916;2023-04-25T13:13:40;11.10;99.90
21778;DHT22;11050;52.222;20.916;2023-04-25T13:16:06;11.10;99.90
21778;DHT22;11050;52.222;20.916;2023-04-25T13:18:33;11.10;99.90
21778;DHT22;11050;52.222;20.916;2023-04-25T13:20:59;11.10;99.90
21778;DHT22;11050;52.222;20.916;2023-04-25T13:23:26;11.10;99.90
21778;DHT22;11050;52.222;20.916;2023-04-25T13:25:54;11.10;99.90
21778;DHT22;11050;52.222;20.916;2023-04-25T13:28:23;11.20;99.90
21778;DHT22;11050;52.222;20.916;2023-04-25T13:30:50;11.20;99.90
21778;DHT22;11050;52.222;20.916;2023-04-25T13:33:17;11.20;99.90
21778;DHT22;11050;52.222;20.916;2023-04-25T13:35:44;11.20;99.90
21778;DHT22;11050;52.222;20.916;2023-04-25T13:38:21;11.20;99.90
21778;DHT22;11050;52.222;20.916;2023-04-25T13:40:51;11.20;99.90
21778;DHT22;11050;52.222;20.916;2023-04-25T13:43:20;11.30;99.90
21778;DHT22;11050;52.222;20.916;2023-04-25T13:45:50;11.30;99.90
21778;DHT22;11050;52.222;20.916;2023-04-25T13:48:17;11.30;99.90
21778;DHT22;11050;52.222;20.916;2023-04-25T13:50:43;11.40;99.90
21778;DHT22;11050;52.222;20.916;2023-04-25T13:53:09;11.40;99.90
21778;DHT22;11050;52.222;20.916;2023-04-25T13:55:35;11.40;99.90
21778;DHT22;11050;52.222;20.916;2023-04-25T13:58:02;11.50;99.90
21778;DHT22;11050;52.222;20.916;2023-04-25T14:00:34;11.50;99.90
21778;DHT22;11050;52.222;20.916;2023-04-25T14:03:08;11.50;99.90
21778;DHT22;11050;52.222;20.916;2023-04-25T14:05:37;11.50;99.90
21778;DHT22;11050;52.222;20.916;2023-04-25T14:08:05;11.60;99.90
21778;DHT22;11050;52.222;20.916;2023-04-25T14:10:31;11.60;99.90
21778;DHT22;11050;52.222;20.916;2023-04-25T14:12:57;11.60;99.90
21778;DHT22;11050;52.222;20.916;2023-04-25T14:15:24;11.50;99.90
21778;DHT22;11050;52.222;20.916;2023-04-25T14:17:50;11.50;99.90
21778;DHT22;11050;52.222;20.916;2023-04-25T14:20:16;11.50;99.90
21778;DHT22;11050;52.222;20.916;2023-04-25T14:22:45;11.50;99.90
21778;DHT22;11050;52.222;20.916;2023-04-25T14:25:11;11.50;99.90
21778;DHT22;11050;52.222;20.916;2023-04-25T14:27:37;11.40;99.90
21778;DHT22;11050;52.222;20.916;2023-04-25T14:30:03;11.40;99.90
21778;DHT22;11050;52.222;20.916;2023-04-25T14:32:30;11.40;99.90
21778;DHT22;11050;52.222;20.916;2023-04-25T14:34:57;11.30;99.90
21778;DHT22;11050;52.222;20.916;2023-04-25T14:37:23;11.20;99.90
21778;DHT22;11050;52.222;20.916;2023-04-25T14:39:48;11.20;99.90
21778;DHT22;11050;52.222;20.916;2023-04-25T14:42:14;11.10;99.90
21778;DHT22;11050;52.222;20.916;2023-04-25T14:44:40;11.10;99.90
21778;DHT22;11050;52.222;20.916;2023-04-25T14:47:06;11.00;99.90
21778;DHT22;11050;52.222;20.916;2023-04-25T14:49:32;11.00;99.90
21778;DHT22;11050;52.222;20.916;2023-04-25T14:51:58;11.00;99.90
21778;DHT22;11050;52.222;20.916;2023-04-25T14:54:24;11.00;99.90
21778;DHT22;11050;52.222;20.916;2023-04-25T14:56:50;11.00;99.90
21778;DHT22;11050;52.222;20.916;2023-04-25T14:59:16;11.00;99.90
21778;DHT22;11050;52.222;20.916;2023-04-25T15:01:42;11.00;99.90
21778;DHT22;11050;52.222;20.916;2023-04-25T15:04:09;11.10;99.90
21778;DHT22;11050;52.222;20.916;2023-04-25T15:06:36;11.10;99.90
21778;DHT22;11050;52.222;20.916;2023-04-25T15:09:01;11.20;99.90
21778;DHT22;11050;52.222;20.916;2023-04-25T15:11:27;11.20;99.90
21778;DHT22;11050;52.222;20.916;2023-04-25T15:13:53;11.20;99.90
21778;DHT22;11050;52.222;20.916;2023-04-25T15:16:19;11.10;99.90
21778;DHT22;11050;52.222;20.916;2023-04-25T15:18:44;11.10;99.90
21778;DHT22;11050;52.222;20.916;2023-04-25T15:21:10;11.00;99.90
21778;DHT22;11050;52.222;20.916;2023-04-25T15:23:36;10.90;99.90
21778;DHT22;11050;52.222;20.916;2023-04-25T15:26:02;10.90;99.90
21778;DHT22;11050;52.222;20.916;2023-04-25T15:28:27;10.80;99.90
21778;DHT22;11050;52.222;20.916;2023-04-25T15:30:53;10.70;99.90
21778;DHT22;11050;52.222;20.916;2023-04-25T15:33:19;10.70;99.90